Portada
METAR-TAF:

METAR-TAF

Aeropuertos :

Payerne, Suiza

latitud: 46-49N, longitud: 006-57E, altitud: 490 m

Observación

El informe se hizo hace 11 minutos, a las 02:50 UTC
Viento 5 kt del suroeste, variando entre sur y oeste
Temperatura 8°C
Humedad 66%
Presión 1011 hPa
Visibilidad 10 km o más

METAR: LSMP 250250Z AUTO 23005KT 190V260 9999NDV NCD 08/02 Q1011 RMK

Hora: 04:01 (03:01 UTC)


TAF: falta

Observaciones y pronósticos meteorológicos de más de 4000 aeropuertos (mensajes METAR y TAF).

Los puntos amarillos y rojos representan las estaciones disponibles.

Ponga el ratón en el punto deseado para ver el nombre de la estación.

Haga clic para ver las observaciones y los pronósticos meteorológicos.

Para cambiar el mapa : haga clic en los botones verdes con una cruz de color negro para hacer un zoom, en el botón verde con un guión para alejar o en las flechas verdes para mapas adyacentes.


METAR-TAF: